Time;durP1;ratioP1;P1;durP2;ratioP2;P2;SDS_P1;SDS_P2;PMS_P1;PMS_P2;Temp;Humidity;BMP_temperature;BMP_pressure;BME280_temperature;BME280_humidity;BME280_pressure;Samples;Min_cycle;Max_cycle;Signal;HPM_P1;HPM_P2
2022/09/04 00:00:23;;;;;;;2.72;2.55;;;24.40;51.70;;;;;;5069712;28;20044;-57
2022/09/04 00:03:06;;;;;;;2.45;2.25;;;24.30;51.70;;;;;;5069486;28;20047;-55
2022/09/04 00:05:39;;;;;;;3.03;2.00;;;24.30;51.80;;;;;;5066480;28;20103;-57
2022/09/04 00:08:38;;;;;;;3.00;2.03;;;24.30;51.90;;;;;;5054488;28;20486;-56
2022/09/04 00:11:12;;;;;;;3.15;2.20;;;24.30;51.80;;;;;;5045467;28;20056;-58
2022/09/04 00:13:43;;;;;;;7.18;2.05;;;24.20;51.90;;;;;;5049723;28;20115;-57
2022/09/04 00:16:16;;;;;;;3.30;1.58;;;24.20;51.90;;;;;;5049565;28;20049;-58
2022/09/04 00:18:50;;;;;;;3.00;1.77;;;24.20;51.90;;;;;;5029474;28;20125;-58
2022/09/04 00:21:26;;;;;;;1.83;1.30;;;24.20;51.90;;;;;;5029623;28;20038;-58
2022/09/04 00:23:58;;;;;;;1.88;1.13;;;24.20;51.80;;;;;;5052503;28;20048;-58
2022/09/04 00:26:43;;;;;;;7.43;1.48;;;24.20;51.70;;;;;;5069284;28;20102;-58
2022/09/04 00:29:19;;;;;;;1.37;0.87;;;24.20;51.70;;;;;;5049718;28;20430;-58
2022/09/04 00:31:52;;;;;;;4.32;1.65;;;24.10;51.60;;;;;;5050245;28;20115;-58
2022/09/04 00:34:37;;;;;;;2.10;1.27;;;24.00;51.60;;;;;;5050120;28;20525;-59
2022/09/04 00:37:10;;;;;;;1.70;0.82;;;24.10;51.60;;;;;;5049258;28;20146;-58
2022/09/04 00:39:43;;;;;;;3.42;0.98;;;24.00;51.50;;;;;;5065824;28;20040;-57
2022/09/04 00:42:27;;;;;;;2.25;0.82;;;24.00;51.60;;;;;;5049439;28;20049;-58
2022/09/04 00:45:06;;;;;;;4.13;0.80;;;24.00;51.70;;;;;;5068278;28;20040;-56
2022/09/04 00:48:00;;;;;;;0.85;0.85;;;23.90;51.60;;;;;;5058538;28;20040;-57
2022/09/04 00:50:54;;;;;;;1.75;1.02;;;23.90;51.50;;;;;;5028952;28;20124;-58
2022/09/04 00:53:36;;;;;;;2.50;0.73;;;23.90;51.50;;;;;;5028960;28;20661;-57
2022/09/04 00:56:14;;;;;;;2.90;1.00;;;23.80;51.50;;;;;;5041780;28;20056;-55
2022/09/04 00:58:56;;;;;;;2.45;1.58;;;23.80;51.60;;;;;;5060613;28;20524;-58
2022/09/04 01:01:26;;;;;;;1.30;1.20;;;23.80;51.50;;;;;;5058101;28;20477;-58
2022/09/04 01:04:18;;;;;;;2.25;0.60;;;23.70;51.50;;;;;;5068146;28;20037;-57
2022/09/04 01:06:58;;;;;;;0.90;0.70;;;23.70;51.50;;;;;;5057591;28;20055;-57
2022/09/04 01:10:05;;;;;;;2.17;1.20;;;23.70;51.60;;;;;;5051494;28;20402;-56
2022/09/04 01:12:44;;;;;;;5.90;1.20;;;23.70;51.50;;;;;;5048197;28;20083;-57
2022/09/04 01:15:16;;;;;;;2.00;0.98;;;23.60;51.50;;;;;;5028750;28;20045;-57
2022/09/04 01:18:02;;;;;;;0.88;0.80;;;23.60;51.60;;;;;;5029458;28;20522;-59
2022/09/04 01:20:55;;;;;;;2.45;1.42;;;23.60;51.60;;;;;;5041618;28;20431;-58
2022/09/04 01:23:49;;;;;;;3.75;1.30;;;23.60;51.70;;;;;;5064809;28;20444;-57
2022/09/04 01:26:25;;;;;;;0.77;0.73;;;23.50;51.70;;;;;;5051988;28;20521;-57
2022/09/04 01:29:06;;;;;;;3.22;1.23;;;23.50;51.80;;;;;;5051738;28;20634;-57
2022/09/04 01:31:44;;;;;;;2.72;1.67;;;23.40;51.70;;;;;;5057868;28;20040;-55
2022/09/04 01:34:32;;;;;;;5.47;0.82;;;23.40;51.80;;;;;;5048255;28;20098;-55
2022/09/04 01:37:12;;;;;;;1.30;0.73;;;23.40;51.60;;;;;;5043391;28;20581;-56
2022/09/04 01:39:44;;;;;;;1.83;1.73;;;23.40;51.60;;;;;;5062232;28;20495;-61
2022/09/04 01:42:17;;;;;;;3.85;0.52;;;23.40;51.50;;;;;;5068342;28;20063;-57
2022/09/04 01:44:45;;;;;;;1.92;0.55;;;23.30;51.20;;;;;;5051317;28;20049;-57
2022/09/04 01:47:21;;;;;;;1.48;0.60;;;23.30;51.20;;;;;;5055963;28;20537;-57
2022/09/04 01:49:58;;;;;;;2.50;0.57;;;23.30;51.70;;;;;;5067059;28;20098;-55
2022/09/04 01:52:37;;;;;;;1.70;1.33;;;23.30;51.10;;;;;;5063850;28;20040;-57
2022/09/04 01:55:13;;;;;;;1.65;0.50;;;23.30;51.10;;;;;;5067508;28;20152;-58
2022/09/04 01:58:02;;;;;;;1.63;0.32;;;23.20;50.80;;;;;;5056414;28;20081;-56
2022/09/04 02:00:34;;;;;;;1.10;0.70;;;23.20;50.70;;;;;;5047643;28;20041;-56
2022/09/04 02:03:10;;;;;;;0.47;0.28;;;23.20;50.60;;;;;;5048053;28;20395;-57
2022/09/04 02:05:48;;;;;;;1.00;0.40;;;23.20;50.50;;;;;;5047542;28;20041;-58
2022/09/04 02:08:48;;;;;;;3.22;0.22;;;23.10;50.30;;;;;;5047383;28;20548;-58
2022/09/04 02:11:18;;;;;;;2.55;0.20;;;23.10;50.20;;;;;;5042754;28;20103;-58
2022/09/04 02:14:07;;;;;;;0.50;0.20;;;23.10;50.10;;;;;;5055580;28;20078;-56
2022/09/04 02:16:45;;;;;;;1.48;0.20;;;23.10;50.00;;;;;;5058012;28;20055;-59
2022/09/04 02:19:27;;;;;;;0.85;0.20;;;23.00;49.90;;;;;;5068033;28;20072;-55
2022/09/04 02:22:01;;;;;;;0.40;0.30;;;23.00;49.90;;;;;;5067054;28;20155;-55
2022/09/04 02:24:35;;;;;;;1.48;0.17;;;23.00;50.00;;;;;;5053152;28;20583;-56
2022/09/04 02:27:08;;;;;;;2.28;0.20;;;23.00;50.00;;;;;;5060431;28;20134;-55
2022/09/04 02:29:44;;;;;;;2.55;0.20;;;23.00;50.00;;;;;;5050301;28;20523;-55
2022/09/04 02:32:17;;;;;;;0.93;0.20;;;23.00;49.90;;;;;;5047374;28;20061;-56
2022/09/04 02:34:50;;;;;;;1.80;0.30;;;23.00;49.90;;;;;;5062331;28;20041;-57
2022/09/04 02:37:24;;;;;;;0.20;0.10;;;23.00;49.80;;;;;;5049220;28;20052;-57
2022/09/04 02:40:00;;;;;;;0.60;0.20;;;23.00;49.40;;;;;;5066639;28;20049;-57
2022/09/04 02:42:31;;;;;;;;;;;22.90;49.10;;;;;;5057535;28;20095;-58
2022/09/04 02:45:12;;;;;;;3.67;0.45;;;22.90;49.20;;;;;;5047400;28;19928;-57
2022/09/04 02:47:47;;;;;;;0.32;0.32;;;22.80;49.20;;;;;;5066758;28;20048;-56
2022/09/04 02:50:29;;;;;;;1.20;0.20;;;22.80;49.00;;;;;;5047525;28;20056;-58
2022/09/04 02:53:07;;;;;;;2.25;0.10;;;22.80;49.00;;;;;;5047386;28;20049;-58
2022/09/04 02:55:56;;;;;;;1.85;1.20;;;22.80;48.90;;;;;;5047321;28;20049;-58
2022/09/04 02:58:45;;;;;;;2.22;0.47;;;22.80;48.70;;;;;;5047363;28;20421;-58
2022/09/04 03:01:21;;;;;;;0.28;0.28;;;22.70;48.70;;;;;;5054288;28;20041;-54
2022/09/04 03:03:56;;;;;;;0.10;0.10;;;22.70;48.70;;;;;;5047230;28;20052;-57
2022/09/04 03:06:30;;;;;;;0.20;0.10;;;22.70;48.60;;;;;;5050123;28;20069;-57
2022/09/04 03:09:02;;;;;;;3.50;0.45;;;22.70;48.70;;;;;;5054326;28;20041;-58
2022/09/04 03:11:34;;;;;;;0.70;0.10;;;22.70;48.70;;;;;;5051280;28;20091;-58
2022/09/04 03:14:08;;;;;;;0.75;0.15;;;22.70;48.80;;;;;;5062537;28;20512;-58
2022/09/04 03:16:42;;;;;;;3.42;1.50;;;22.70;48.80;;;;;;5065921;28;20040;-57
2022/09/04 03:19:15;;;;;;;0.50;0.50;;;22.60;48.70;;;;;;5057815;28;20110;-57
2022/09/04 03:21:50;;;;;;;1.95;0.20;;;22.60;48.70;;;;;;5045412;28;20418;-57
2022/09/04 03:24:22;;;;;;;0.88;0.10;;;22.60;48.80;;;;;;5044590;28;20040;-57
2022/09/04 03:26:53;;;;;;;0.85;0.20;;;22.60;49.00;;;;;;5050631;28;20048;-58
2022/09/04 03:29:30;;;;;;;2.20;0.20;;;22.60;49.10;;;;;;5057486;28;20045;-58
2022/09/04 03:32:07;;;;;;;0.38;0.10;;;22.60;49.10;;;;;;5064302;28;20139;-58
2022/09/04 03:34:42;;;;;;;0.82;0.20;;;22.60;49.20;;;;;;5066581;28;20598;-60
2022/09/04 03:37:41;;;;;;;1.60;0.30;;;22.50;49.30;;;;;;5049890;28;20064;-59
2022/09/04 03:40:28;;;;;;;0.60;0.10;;;22.60;49.40;;;;;;5066676;28;20114;-59
2022/09/04 03:43:10;;;;;;;0.93;0.20;;;22.50;49.40;;;;;;5065566;28;20041;-58
2022/09/04 03:45:46;;;;;;;1.75;0.73;;;22.50;49.50;;;;;;5047056;28;20557;-59
2022/09/04 03:48:30;;;;;;;0.40;0.28;;;22.50;49.50;;;;;;5048194;28;20090;-60
2022/09/04 03:51:02;;;;;;;1.02;0.35;;;22.50;49.60;;;;;;5066989;28;20543;-59
2022/09/04 03:53:37;;;;;;;1.05;0.30;;;22.40;49.60;;;;;;5062815;28;20098;-59
2022/09/04 03:56:32;;;;;;;0.32;0.20;;;22.40;49.70;;;;;;5053841;28;20080;-59
2022/09/04 03:59:04;;;;;;;0.60;0.10;;;22.40;49.80;;;;;;5065836;28;20106;-59
2022/09/04 04:01:42;;;;;;;2.65;0.28;;;22.40;49.90;;;;;;5056832;28;20091;-59
2022/09/04 04:04:43;;;;;;;1.10;0.35;;;22.40;50.00;;;;;;5049505;28;20043;-59
2022/09/04 04:07:23;;;;;;;0.17;0.17;;;22.40;49.70;;;;;;5061720;28;20051;-57
2022/09/04 04:10:01;;;;;;;4.57;0.17;;;22.30;49.80;;;;;;5064176;28;20548;-55
2022/09/04 04:12:45;;;;;;;2.70;0.57;;;22.40;49.80;;;;;;5049680;28;20121;-57
2022/09/04 04:15:32;;;;;;;1.08;0.10;;;22.40;49.80;;;;;;5065918;28;20569;-56
2022/09/04 04:18:22;;;;;;;1.70;0.20;;;22.30;49.70;;;;;;5050335;28;20136;-55
2022/09/04 04:20:59;;;;;;;1.27;1.17;;;22.30;49.50;;;;;;5057594;28;20060;-58
2022/09/04 04:24:04;;;;;;;0.85;0.10;;;22.30;49.50;;;;;;5069717;28;20582;-58
2022/09/04 04:26:40;;;;;;;1.95;0.10;;;22.30;49.40;;;;;;5069605;28;20602;-56
2022/09/04 04:29:19;;;;;;;2.65;0.30;;;22.30;49.30;;;;;;5057397;28;20048;-57
2022/09/04 04:35:04;;;;;;;0.15;0.13;;;22.30;49.30;;;;;;5061358;28;20135;-58
2022/09/04 04:37:43;;;;;;;1.10;0.17;;;22.20;49.20;;;;;;5063790;28;20045;-59
2022/09/04 04:40:20;;;;;;;0.20;0.15;;;22.30;49.90;;;;;;5055876;28;20120;-59
2022/09/04 04:42:54;;;;;;;3.63;0.20;;;22.30;49.30;;;;;;5054412;28;20420;-59
2022/09/04 04:48:47;;;;;;;1.35;0.20;;;22.20;49.20;;;;;;5054024;28;20041;-59
2022/09/04 04:51:49;;;;;;;3.22;0.30;;;22.20;49.30;;;;;;5029193;28;20049;-57
2022/09/04 04:54:41;;;;;;;0.50;0.20;;;22.20;49.40;;;;;;5046315;28;20128;-58
2022/09/04 04:57:20;;;;;;;0.50;0.25;;;22.20;49.40;;;;;;5061325;28;20037;-59
2022/09/04 04:59:57;;;;;;;1.10;0.30;;;22.20;49.40;;;;;;5029502;28;20596;-58
2022/09/04 05:02:29;;;;;;;1.20;0.38;;;22.20;49.30;;;;;;5054671;28;20048;-59
2022/09/04 05:05:04;;;;;;;2.15;0.10;;;22.20;49.20;;;;;;5068430;28;20040;-57
2022/09/04 05:07:37;;;;;;;0.40;0.20;;;22.20;49.20;;;;;;5056392;28;20044;-58
2022/09/04 05:10:16;;;;;;;0.95;0.17;;;22.20;49.20;;;;;;5060983;28;20123;-58
2022/09/04 05:13:03;;;;;;;2.20;0.30;;;22.20;49.70;;;;;;5068881;28;20420;-59
2022/09/04 05:15:38;;;;;;;1.35;0.10;;;22.20;49.10;;;;;;5068453;28;20058;-59
2022/09/04 05:18:11;;;;;;;1.50;0.30;;;22.20;49.20;;;;;;5037580;28;20040;-59
2022/09/04 05:20:44;;;;;;;0.57;0.40;;;22.20;49.10;;;;;;5063192;28;20600;-58
2022/09/04 05:23:29;;;;;;;0.60;0.50;;;22.20;49.10;;;;;;5048349;28;20098;-58
2022/09/04 05:26:06;;;;;;;0.75;0.57;;;22.20;49.00;;;;;;5050980;28;20653;-58
2022/09/04 05:28:45;;;;;;;1.75;0.20;;;22.20;49.10;;;;;;5030982;28;20060;-57
2022/09/04 05:31:24;;;;;;;0.30;0.20;;;22.20;49.00;;;;;;5047991;28;20044;-57
2022/09/04 05:33:59;;;;;;;1.77;0.20;;;22.20;49.00;;;;;;5053144;28;20040;-57
2022/09/04 05:36:36;;;;;;;4.18;1.50;;;22.20;49.10;;;;;;5057621;28;20243;-59
2022/09/04 05:39:13;;;;;;;0.95;0.20;;;22.20;49.10;;;;;;5059246;28;20071;-58
2022/09/04 05:41:57;;;;;;;2.95;0.10;;;22.10;49.00;;;;;;5067506;28;20086;-58
2022/09/04 05:44:37;;;;;;;3.78;0.20;;;22.10;48.90;;;;;;5056486;28;20099;-58
2022/09/04 05:47:11;;;;;;;3.75;0.20;;;22.20;49.00;;;;;;5030042;28;20049;-58
2022/09/04 05:49:58;;;;;;;0.50;0.13;;;22.20;49.10;;;;;;5067812;28;20049;-59
2022/09/04 05:52:43;;;;;;;1.30;0.28;;;22.20;49.00;;;;;;5063096;28;20587;-58
2022/09/04 05:55:30;;;;;;;0.98;0.40;;;22.20;49.10;;;;;;5047687;28;20076;-59
2022/09/04 05:58:26;;;;;;;0.55;0.10;;;22.20;49.10;;;;;;5047402;28;20543;-58
2022/09/04 06:01:06;;;;;;;2.05;0.40;;;22.20;49.10;;;;;;5044635;28;20049;-58
2022/09/04 06:03:54;;;;;;;0.45;0.15;;;22.20;49.10;;;;;;5047639;28;20086;-58
2022/09/04 06:06:25;;;;;;;0.93;0.20;;;22.20;48.90;;;;;;5049952;28;20130;-58
2022/09/04 06:09:10;;;;;;;0.50;0.38;;;22.20;49.10;;;;;;5047776;28;20660;-59
2022/09/04 06:11:56;;;;;;;1.45;0.35;;;22.20;49.10;;;;;;5051391;28;20075;-58
2022/09/04 06:14:53;;;;;;;0.22;0.17;;;22.20;49.30;;;;;;5046875;28;20102;-58
2022/09/04 06:17:31;;;;;;;2.38;0.50;;;22.20;49.30;;;;;;4975886;28;20193;-59
2022/09/04 06:20:28;;;;;;;0.88;0.17;;;22.20;49.50;;;;;;4978052;28;20124;-57
2022/09/04 06:23:11;;;;;;;1.15;0.30;;;22.20;49.50;;;;;;4970038;28;20813;-58
2022/09/04 06:25:57;;;;;;;0.35;0.25;;;22.20;49.70;;;;;;4966669;28;20113;-59
2022/09/04 06:28:44;;;;;;;2.85;0.55;;;22.30;49.90;;;;;;4974581;28;20080;-58
2022/09/04 06:31:43;;;;;;;1.38;0.73;;;22.20;49.80;;;;;;4984593;28;20156;-58
2022/09/04 06:34:16;;;;;;;1.67;0.40;;;22.30;50.00;;;;;;4975507;28;20055;-57
2022/09/04 06:36:56;;;;;;;2.35;0.35;;;22.30;50.20;;;;;;4962542;28;20050;-56
2022/09/04 06:39:44;;;;;;;1.05;0.30;;;22.30;50.00;;;;;;4971388;28;20077;-57
2022/09/04 06:42:24;;;;;;;0.30;0.10;;;22.30;50.00;;;;;;4965251;28;20629;-55
2022/09/04 06:45:04;;;;;;;1.20;0.50;;;22.30;50.00;;;;;;4971350;28;20101;-57
2022/09/04 06:47:48;;;;;;;2.67;0.15;;;22.30;50.10;;;;;;4975496;28;20104;-58
2022/09/04 06:50:23;;;;;;;2.63;0.50;;;22.30;50.00;;;;;;4970030;28;20051;-58
2022/09/04 06:53:06;;;;;;;6.10;0.40;;;22.40;50.10;;;;;;4956584;28;20594;-56
2022/09/04 06:55:43;;;;;;;2.08;0.20;;;22.40;50.10;;;;;;5059381;28;20053;-56
2022/09/04 06:58:42;;;;;;;4.93;0.50;;;22.40;50.10;;;;;;5064969;28;20040;-56
2022/09/04 07:01:15;;;;;;;0.60;0.30;;;22.50;50.00;;;;;;5029143;28;20059;-57
2022/09/04 07:03:54;;;;;;;2.95;0.20;;;22.50;50.10;;;;;;5052334;28;20117;-56
2022/09/04 07:06:28;;;;;;;2.97;0.25;;;22.50;50.00;;;;;;5055452;28;20108;-58
2022/09/04 07:09:05;;;;;;;2.33;0.30;;;22.50;50.00;;;;;;5060096;28;20076;-58
2022/09/04 07:11:53;;;;;;;3.70;0.40;;;22.50;49.90;;;;;;5053394;28;20040;-59
2022/09/04 07:14:49;;;;;;;1.35;0.73;;;22.60;49.90;;;;;;5048985;28;20060;-55
2022/09/04 07:17:24;;;;;;;2.27;0.40;;;22.60;49.80;;;;;;5052569;28;20040;-57
2022/09/04 07:20:05;;;;;;;0.93;0.40;;;22.50;49.80;;;;;;5057888;28;20526;-56
2022/09/04 07:23:01;;;;;;;1.17;0.30;;;22.50;49.70;;;;;;5045070;28;20626;-57
2022/09/04 07:25:39;;;;;;;1.25;0.30;;;22.60;49.60;;;;;;5055889;28;20052;-58
2022/09/04 07:28:22;;;;;;;3.22;0.50;;;22.60;49.50;;;;;;5054120;28;20059;-57
2022/09/04 07:30:53;;;;;;;0.47;0.30;;;22.60;49.50;;;;;;5048575;28;20124;-58
2022/09/04 07:33:31;;;;;;;2.53;0.43;;;22.60;49.40;;;;;;5050470;28;20508;-57
2022/09/04 07:36:06;;;;;;;1.85;0.38;;;22.70;49.40;;;;;;5047181;28;20064;-57
2022/09/04 07:38:40;;;;;;;1.38;0.50;;;22.70;49.20;;;;;;5039827;28;20045;-57
2022/09/04 07:41:13;;;;;;;0.45;0.20;;;22.70;49.20;;;;;;5050907;28;20091;-57
2022/09/04 07:43:49;;;;;;;0.80;0.30;;;22.70;49.10;;;;;;5036975;28;20528;-57
2022/09/04 07:46:22;;;;;;;2.05;0.20;;;22.80;49.00;;;;;;5030278;28;20068;-56
2022/09/04 07:48:55;;;;;;;2.67;0.22;;;22.80;49.00;;;;;;5063194;28;20165;-59
2022/09/04 07:51:30;;;;;;;3.63;0.20;;;22.80;48.80;;;;;;5069966;28;20044;-57
2022/09/04 07:54:29;;;;;;;0.85;0.10;;;22.90;48.70;;;;;;5067934;28;20071;-57
2022/09/04 07:57:22;;;;;;;0.40;0.20;;;22.90;48.50;;;;;;5059959;28;20417;-58
2022/09/04 08:00:01;;;;;;;1.38;0.10;;;22.90;48.50;;;;;;5053287;28;20049;-58
2022/09/04 08:02:55;;;;;;;8.63;0.30;;;23.00;48.30;;;;;;5052436;28;20051;-54
2022/09/04 08:05:27;;;;;;;3.42;0.35;;;23.00;48.20;;;;;;5050921;28;20045;-57
2022/09/04 08:08:33;;;;;;;1.27;0.20;;;23.10;48.10;;;;;;5068242;28;20136;-57
2022/09/04 08:11:22;;;;;;;0.30;0.20;;;23.20;47.90;;;;;;5055568;28;20041;-47
2022/09/04 08:14:17;;;;;;;0.40;0.32;;;23.20;47.70;;;;;;5054582;28;20090;-47
2022/09/04 08:16:54;;;;;;;0.65;0.10;;;23.30;47.50;;;;;;5049412;28;20065;-47
2022/09/04 08:19:39;;;;;;;1.77;1.10;;;23.30;47.50;;;;;;5049741;28;20136;-46
2022/09/04 08:22:12;;;;;;;0.30;0.20;;;23.40;47.40;;;;;;5060794;28;20071;-48
2022/09/04 08:25:18;;;;;;;0.90;0.20;;;23.40;47.20;;;;;;5063234;28;20041;-49
2022/09/04 08:28:12;;;;;;;0.20;0.10;;;23.50;47.10;;;;;;5054959;28;20053;-48
2022/09/04 08:30:46;;;;;;;10.70;0.60;;;23.50;47.10;;;;;;5047255;28;20041;-47
2022/09/04 08:33:36;;;;;;;1.63;0.30;;;23.50;47.40;;;;;;5048771;28;20536;-48
2022/09/04 08:36:11;;;;;;;3.65;0.30;;;23.60;47.20;;;;;;5048249;28;20068;-50
2022/09/04 08:39:08;;;;;;;3.58;0.10;;;23.70;48.00;;;;;;5048970;28;20076;-52
2022/09/04 08:42:08;;;;;;;3.80;1.10;;;23.70;47.80;;;;;;5028580;28;20045;-50
2022/09/04 08:45:03;;;;;;;1.23;0.22;;;23.90;47.10;;;;;;5061311;28;20067;-49
2022/09/04 08:48:08;;;;;;;0.98;0.10;;;23.90;47.30;;;;;;5064241;28;20118;-50
2022/09/04 08:51:11;;;;;;;1.10;0.10;;;24.00;47.20;;;;;;5065543;28;20036;-49
2022/09/04 08:54:19;;;;;;;3.03;0.20;;;24.10;47.10;;;;;;5048719;28;20056;-49
2022/09/04 08:56:49;;;;;;;;;;;24.10;47.50;;;;;;5057874;28;20044;-49
2022/09/04 08:59:50;;;;;;;4.30;0.17;;;24.10;47.00;;;;;;5056927;28;19931;-50
2022/09/04 09:03:11;;;;;;;1.58;0.20;;;24.10;47.30;;;;;;5028490;28;20135;-48
2022/09/04 09:06:19;;;;;;;4.32;0.20;;;24.20;47.40;;;;;;4992245;28;20489;-51
2022/09/04 09:09:19;;;;;;;0.60;0.20;;;24.30;47.60;;;;;;4906066;29;20056;-48
2022/09/04 09:12:15;;;;;;;5.32;0.52;;;24.40;47.60;;;;;;4872345;29;20144;-53
2022/09/04 09:15:15;;;;;;;2.53;0.32;;;24.50;47.70;;;;;;4884325;29;20044;-50
2022/09/04 09:17:58;;;;;;;2.38;0.70;;;24.60;47.80;;;;;;4900672;29;20520;-48
2022/09/04 09:20:28;;;;;;;3.78;0.28;;;24.60;47.80;;;;;;4890662;29;20100;-51
2022/09/04 09:23:19;;;;;;;4.70;0.43;;;24.70;47.90;;;;;;4895370;29;20140;-52
2022/09/04 09:26:08;;;;;;;0.75;0.10;;;24.80;47.80;;;;;;4893663;29;20052;-49
2022/09/04 09:29:20;;;;;;;2.55;0.20;;;24.90;48.00;;;;;;4890628;29;20139;-49
2022/09/04 09:32:29;;;;;;;2.28;0.20;;;25.00;47.60;;;;;;4853092;29;20424;-51
2022/09/04 09:35:36;;;;;;;1.05;0.30;;;25.10;47.20;;;;;;4861076;29;20049;-49
2022/09/04 09:38:43;;;;;;;0.52;0.28;;;25.10;46.80;;;;;;4903441;29;20062;-49
2022/09/04 09:41:50;;;;;;;1.73;0.10;;;25.20;46.50;;;;;;4915746;29;20143;-48
2022/09/04 09:44:36;;;;;;;;;;;25.20;46.10;;;;;;4853397;29;20499;-48
2022/09/04 09:47:36;;;;;;;0.32;0.10;;;25.20;46.20;;;;;;4867187;29;19928;-52
2022/09/04 09:50:33;;;;;;;0.40;0.10;;;25.20;45.40;;;;;;4886677;29;20466;-53
2022/09/04 09:53:32;;;;;;;;;;;25.30;45.30;;;;;;4876395;29;20088;-52
2022/09/04 09:56:30;;;;;;;2.78;0.10;;;25.30;45.40;;;;;;4852828;29;20409;-51
2022/09/04 09:59:31;;;;;;;0.82;0.10;;;25.30;45.00;;;;;;4845013;29;20157;-47
2022/09/04 10:02:31;;;;;;;2.25;0.10;;;25.40;44.70;;;;;;4818741;29;20445;-55
2022/09/04 10:05:30;;;;;;;1.52;0.10;;;25.40;44.30;;;;;;4834335;29;20069;-51
2022/09/04 10:08:17;;;;;;;1.02;0.20;;;25.50;44.10;;;;;;4862146;29;20060;-49
2022/09/04 10:11:01;;;;;;;1.55;0.13;;;25.50;44.00;;;;;;4888814;29;20050;-49
2022/09/04 10:14:04;;;;;;;0.35;0.10;;;25.60;44.00;;;;;;4896442;29;20135;-47
2022/09/04 10:17:00;;;;;;;1.02;0.20;;;25.60;43.70;;;;;;4916424;29;20524;-47
2022/09/04 10:19:57;;;;;;;2.90;0.20;;;25.70;43.80;;;;;;4925717;29;20051;-47
2022/09/04 10:22:35;;;;;;;;;;;25.70;44.10;;;;;;4934236;29;20060;-51
2022/09/04 10:25:38;;;;;;;2.83;0.15;;;25.70;44.20;;;;;;4916951;29;19958;-50
2022/09/04 10:28:24;;;;;;;3.72;0.40;;;25.70;44.60;;;;;;4959299;28;20042;-46
2022/09/04 10:31:18;;;;;;;1.50;0.45;;;25.80;44.80;;;;;;4981985;28;20051;-51
2022/09/04 10:34:00;;;;;;;1.55;0.20;;;25.90;44.80;;;;;;4974844;28;20054;-49
2022/09/04 10:36:40;;;;;;;3.47;0.10;;;26.00;44.50;;;;;;4993253;28;20128;-50
2022/09/04 10:42:22;;;;;;;1.13;1.08;;;26.20;43.90;;;;;;5016402;28;20098;-50
2022/09/04 10:45:13;;;;;;;2.25;0.20;;;26.20;43.70;;;;;;5058410;28;20082;-49
2022/09/04 10:48:23;;;;;;;2.38;0.30;;;26.30;43.70;;;;;;5049868;28;20446;-50
2022/09/04 10:51:27;;;;;;;1.48;0.30;;;26.30;43.40;;;;;;5047843;28;20053;-48
2022/09/04 10:54:43;;;;;;;3.95;0.10;;;26.40;43.40;;;;;;5059099;28;20053;-48
2022/09/04 10:57:29;;;;;;;1.23;1.07;;;26.40;43.20;;;;;;4964435;28;20504;-47
2022/09/04 11:00:07;;;;;;;0.93;0.10;;;26.50;43.10;;;;;;4975025;28;20049;-49
2022/09/04 11:03:06;;;;;;;3.22;0.22;;;26.50;43.00;;;;;;4995429;28;20050;-47
2022/09/04 11:06:10;;;;;;;2.88;0.10;;;26.60;43.10;;;;;;4988903;28;20113;-49
2022/09/04 11:08:51;;;;;;;0.73;0.20;;;26.60;42.90;;;;;;4993956;28;20170;-48
2022/09/04 11:11:51;;;;;;;3.72;0.20;;;26.70;42.80;;;;;;5004615;28;20185;-48
2022/09/04 11:14:43;;;;;;;2.58;0.17;;;26.70;42.80;;;;;;5008505;28;20070;-49
2022/09/04 11:17:50;;;;;;;0.70;0.28;;;26.70;42.70;;;;;;5007908;28;20053;-47
2022/09/04 11:20:32;;;;;;;;;;;26.80;42.60;;;;;;4992562;28;20124;-48
2022/09/04 11:23:38;;;;;;;1.10;0.90;;;26.70;42.70;;;;;;4988346;28;19921;-49
2022/09/04 11:26:46;;;;;;;0.68;0.38;;;26.80;42.50;;;;;;4988739;28;20053;-47
2022/09/04 11:29:40;;;;;;;0.68;0.10;;;26.80;42.50;;;;;;4994624;28;20073;-48
2022/09/04 11:32:23;;;;;;;1.08;0.10;;;26.90;42.30;;;;;;5016465;28;20053;-48
2022/09/04 11:35:25;;;;;;;3.30;0.30;;;26.90;42.70;;;;;;5020445;28;20077;-51
2022/09/04 11:38:19;;;;;;;1.85;0.30;;;27.00;42.60;;;;;;5012350;28;20104;-58
2022/09/04 11:41:28;;;;;;;0.30;0.10;;;27.10;42.60;;;;;;5006074;28;20892;-51
2022/09/04 11:44:38;;;;;;;0.15;0.15;;;27.10;42.50;;;;;;4938809;29;20067;-55
2022/09/04 11:47:40;;;;;;;2.42;0.10;;;27.20;43.20;;;;;;4926643;29;20782;-58
2022/09/04 11:50:18;;;;;;;2.38;0.20;;;27.20;42.80;;;;;;4912248;29;20052;-49
2022/09/04 11:53:12;;;;;;;0.73;0.10;;;27.30;42.80;;;;;;4930984;29;20151;-55
2022/09/04 11:56:05;;;;;;;0.35;0.20;;;27.30;42.70;;;;;;4935256;29;20918;-61
2022/09/04 11:59:06;;;;;;;3.03;0.10;;;27.40;42.90;;;;;;4933346;29;20050;-62
2022/09/04 12:01:51;;;;;;;1.83;0.17;;;27.40;42.50;;;;;;4935116;29;20465;-64
2022/09/04 12:04:42;;;;;;;1.17;0.10;;;27.40;42.30;;;;;;4931013;29;20044;-64
2022/09/04 12:07:25;;;;;;;1.40;0.30;;;27.50;42.30;;;;;;4982331;28;20050;-62
2022/09/04 12:10:08;;;;;;;0.73;0.10;;;27.60;42.10;;;;;;4992464;28;20038;-64
2022/09/04 12:13:06;;;;;;;2.15;0.10;;;27.70;42.10;;;;;;4998943;28;20612;-61
2022/09/04 12:16:26;;;;;;;0.55;0.55;;;27.80;42.10;;;;;;5000619;28;20546;-63
2022/09/04 12:19:21;;;;;;;1.20;0.10;;;27.80;41.90;;;;;;4991336;28;20107;-61
2022/09/04 12:22:17;;;;;;;1.45;0.10;;;27.90;41.90;;;;;;5053586;28;20048;-64
2022/09/04 12:25:02;;;;;;;3.42;0.22;;;28.00;41.90;;;;;;5067418;28;20638;-64
2022/09/04 12:28:07;;;;;;;0.52;0.20;;;28.00;41.70;;;;;;5057508;28;20123;-64
2022/09/04 12:30:52;;;;;;;0.93;0.10;;;28.20;41.70;;;;;;5060720;28;20469;-64
2022/09/04 12:34:00;;;;;;;2.35;0.47;;;28.20;41.50;;;;;;5049751;28;20561;-65
2022/09/04 12:36:58;;;;;;;0.55;0.10;;;28.30;41.40;;;;;;4959397;28;20097;-64
2022/09/04 12:39:47;;;;;;;0.75;0.25;;;28.40;40.80;;;;;;4977854;28;20050;-68
2022/09/04 12:42:21;;;;;;;0.65;0.10;;;28.40;40.70;;;;;;4978741;28;20054;-64
2022/09/04 12:45:00;;;;;;;1.38;0.47;;;28.50;40.80;;;;;;4973646;28;20050;-64
2022/09/04 12:47:35;;;;;;;0.20;0.10;;;28.60;40.80;;;;;;4969150;28;20162;-65
2022/09/04 12:50:27;;;;;;;1.42;0.10;;;28.70;40.40;;;;;;4949177;29;20066;-63
2022/09/04 12:53:07;;;;;;;1.38;0.20;;;28.80;40.40;;;;;;4951637;28;20055;-64
2022/09/04 12:55:45;;;;;;;2.95;0.20;;;28.80;40.40;;;;;;4970957;28;20059;-61
2022/09/04 12:58:25;;;;;;;1.83;0.10;;;28.90;40.30;;;;;;4968458;28;20484;-64
2022/09/04 13:01:07;;;;;;;1.55;0.32;;;29.00;40.00;;;;;;4975547;28;20046;-62
2022/09/04 13:03:46;;;;;;;0.38;0.10;;;29.00;40.00;;;;;;4982104;28;20141;-61
2022/09/04 13:06:24;;;;;;;0.32;0.10;;;29.10;40.10;;;;;;4975102;28;20158;-62
2022/09/04 13:09:02;;;;;;;1.98;0.30;;;29.20;40.00;;;;;;4983508;28;20063;-62
2022/09/04 13:11:48;;;;;;;1.10;0.10;;;29.20;39.80;;;;;;5009901;28;20091;-61
2022/09/04 13:14:39;;;;;;;0.45;0.17;;;29.20;39.70;;;;;;5068722;28;20046;-62
2022/09/04 13:17:16;;;;;;;0.63;0.10;;;29.30;39.70;;;;;;5067249;28;20086;-62
2022/09/04 13:19:52;;;;;;;3.25;0.73;;;29.30;39.70;;;;;;5068926;28;20040;-63
2022/09/04 13:22:31;;;;;;;3.17;0.10;;;29.40;39.50;;;;;;5069706;28;20064;-63
2022/09/04 13:25:09;;;;;;;0.75;0.50;;;29.50;39.40;;;;;;5058352;28;20041;-63
2022/09/04 13:27:57;;;;;;;6.97;0.28;;;29.50;39.40;;;;;;5058556;28;20064;-62
2022/09/04 13:30:25;;;;;;;0.30;0.25;;;29.60;40.20;;;;;;5062594;28;20083;-65
2022/09/04 13:33:20;;;;;;;0.38;0.22;;;29.70;39.40;;;;;;5043071;28;20041;-62
2022/09/04 13:36:09;;;;;;;0.43;0.20;;;29.70;39.30;;;;;;5061303;28;20092;-63
2022/09/04 13:39:16;;;;;;;3.08;0.10;;;29.80;39.20;;;;;;5051769;28;20043;-61
2022/09/04 13:42:28;;;;;;;0.30;0.20;;;29.90;39.00;;;;;;5048789;28;20041;-63
2022/09/04 13:45:04;;;;;;;16.50;0.50;;;29.90;39.00;;;;;;5068488;28;20048;-62
2022/09/04 13:47:39;;;;;;;3.42;0.98;;;29.90;39.00;;;;;;5059621;28;20051;-61
2022/09/04 13:50:14;;;;;;;3.65;0.68;;;30.00;39.00;;;;;;5055804;28;20128;-62
2022/09/04 13:52:44;;;;;;;;;;;30.00;38.80;;;;;;5069001;28;20060;-62
2022/09/04 13:55:17;;;;;;;7.20;0.68;;;30.00;38.90;;;;;;5067547;28;20397;-61
2022/09/04 13:57:56;;;;;;;0.20;0.20;;;30.10;38.40;;;;;;5054300;28;20045;-61
2022/09/04 14:00:25;;;;;;;0.75;0.10;;;30.20;38.10;;;;;;5053619;28;20127;-61
2022/09/04 14:03:02;;;;;;;0.20;0.20;;;30.20;37.90;;;;;;5036328;28;20041;-62
2022/09/04 14:05:32;;;;;;;0.30;0.10;;;30.30;37.50;;;;;;5054456;28;20098;-61
2022/09/04 14:08:02;;;;;;;0.10;0.10;;;30.40;37.40;;;;;;5054381;28;20072;-61
2022/09/04 14:10:51;;;;;;;1.35;0.10;;;30.40;37.20;;;;;;5064463;28;20147;-61
2022/09/04 14:13:38;;;;;;;0.65;0.10;;;30.50;37.10;;;;;;5067618;28;20118;-61
2022/09/04 14:16:10;;;;;;;0.93;0.17;;;30.60;36.90;;;;;;5028157;28;20053;-61
2022/09/04 14:19:03;;;;;;;0.55;0.20;;;30.70;36.80;;;;;;5028356;28;20057;-61
2022/09/04 14:21:40;;;;;;;0.47;0.10;;;30.70;36.50;;;;;;5060075;28;20132;-61
2022/09/04 14:24:19;;;;;;;0.73;0.10;;;30.80;36.40;;;;;;5046884;28;20052;-61
2022/09/04 14:26:55;;;;;;;2.28;0.57;;;30.80;36.20;;;;;;5059587;28;20049;-61